Schneifelwetter: Wetterstation Hallschlag, 537 m . NN
Wetterdaten: Donnerstag, 23.06.2011
Datum Zeit Temp. A. Feuchte A. Luftdruck Regen Wind Richtung Richtung Sonnenschein Helligkeit T Regen Taupunkt Windchill
23.06.2011 00:02 11,8 C 89 % 1015 hPa 0,0 l/m 18,7 km/h (3 Bft) S45 190 0 min 0 lux 0,00 min 10,0 C 6,0 C
23.06.2011 00:17 11,8 C 89 % 1015 hPa 0,0 l/m 19,6 km/h (3 Bft) S22.5 185 0 min 0 lux 0,00 min 10,0 C 5,7 C
23.06.2011 00:32 11,8 C 89 % 1014 hPa 0,0 l/m 13,0 km/h (3 Bft) S-SW22.5 200 0 min 0 lux 0,00 min 10,0 C 8,1 C
23.06.2011 00:47 11,7 C 89 % 1014 hPa 0,0 l/m 14,8 km/h (3 Bft) SW45 225 0 min 0 lux 0,00 min 9,9 C 7,3 C
23.06.2011 01:02 11,6 C 89 % 1014 hPa 0,0 l/m 16,8 km/h (3 Bft) SW45 235 0 min 0 lux 0,00 min 9,8 C 6,4 C
23.06.2011 01:17 11,7 C 89 % 1014 hPa 0,0 l/m 18,0 km/h (3 Bft) SW45 215 0 min 0 lux 0,00 min 9,9 C 6,1 C
23.06.2011 01:32 11,6 C 88 % 1014 hPa 0,0 l/m 18,6 km/h (3 Bft) S-SW45 210 0 min 0 lux 0,00 min 9,7 C 5,8 C
23.06.2011 01:47 11,4 C 88 % 1014 hPa 0,0 l/m 20,6 km/h (4 Bft) S-SW45 205 0 min 0 lux 0,00 min 9,5 C 4,9 C
23.06.2011 02:02 11,5 C 88 % 1014 hPa 0,0 l/m 16,1 km/h (3 Bft) SW45 220 0 min 0 lux 0,00 min 9,6 C 6,5 C
23.06.2011 02:16 11,3 C 88 % 1014 hPa 0,0 l/m 17,0 km/h (3 Bft) S-SW22.5 210 0 min 0 lux 0,00 min 9,4 C 6,0 C
23.06.2011 02:31 11,2 C 88 % 1014 hPa 0,0 l/m 13,3 km/h (3 Bft) SW22.5 230 0 min 0 lux 0,00 min 9,3 C 7,3 C
23.06.2011 02:46 11,0 C 88 % 1014 hPa 0,0 l/m 9,6 km/h (2 Bft) SW45 235 0 min 0 lux 0,00 min 9,1 C 8,9 C
23.06.2011 03:01 10,8 C 89 % 1014 hPa 0,0 l/m 22,0 km/h (4 Bft) SW45 230 0 min 0 lux 0,00 min 9,1 C 3,7 C
23.06.2011 03:16 10,5 C 88 % 1014 hPa 0,0 l/m 13,8 km/h (3 Bft) W-SW22.5 240 0 min 0 lux 0,00 min 8,6 C 6,3 C
23.06.2011 03:31 10,3 C 89 % 1014 hPa 0,0 l/m 19,3 km/h (3 Bft) SW45 215 0 min 0 lux 0,00 min 8,6 C 3,9 C
23.06.2011 03:46 10,2 C 90 % 1014 hPa 0,0 l/m 13,3 km/h (3 Bft) SW22.5 220 0 min 0 lux 0,00 min 8,6 C 6,1 C
23.06.2011 04:01 10,2 C 90 % 1014 hPa 0,0 l/m 13,3 km/h (3 Bft) W-SW22.5 250 0 min 0 lux 0,00 min 8,6 C 6,1 C
23.06.2011 04:16 10,3 C 90 % 1014 hPa 0,0 l/m 7,0 km/h (2 Bft) SW 220 0 min 0 lux 0,00 min 8,7 C 9,9 C
23.06.2011 04:31 10,4 C 91 % 1014 hPa 0,0 l/m 10,2 km/h (2 Bft) SW45 220 0 min 0 lux 0,00 min 9,0 C 7,9 C
23.06.2011 04:46 10,4 C 91 % 1014 hPa 0,0 l/m 5,6 km/h (1 Bft) S-SW 200 0 min 0 lux 0,00 min 9,0 C 10,4 C
23.06.2011 05:01 10,5 C 91 % 1014 hPa 0,0 l/m 8,3 km/h (2 Bft) S-SW22.5 210 0 min 0 lux 0,00 min 9,1 C 9,2 C
23.06.2011 05:16 10,5 C 91 % 1014 hPa 0,0 l/m 11,6 km/h (2 Bft) SW22.5 215 0 min 116 lux 0,00 min 9,1 C 7,3 C
23.06.2011 05:31 10,7 C 91 % 1014 hPa 0,0 l/m 11,5 km/h (2 Bft) S-SW22.5 205 0 min 251 lux 0,00 min 9,3 C 7,6 C
23.06.2011 05:46 10,8 C 91 % 1014 hPa 0,0 l/m 18,6 km/h (3 Bft) SW45 225 0 min 891 lux 0,00 min 9,4 C 4,8 C
23.06.2011 06:01 10,8 C 91 % 1014 hPa 0,0 l/m 20,1 km/h (4 Bft) SW22.5 220 0 min 2,43 klux 0,00 min 9,4 C 4,3 C
23.06.2011 06:16 10,9 C 90 % 1014 hPa 0,0 l/m 21,5 km/h (4 Bft) SW45 225 0 min 9,6 klux 0,00 min 9,3 C 4,0 C
23.06.2011 06:31 10,8 C 90 % 1014 hPa 0,0 l/m 17,3 km/h (3 Bft) SW22.5 220 0 min 4,72 klux 0,00 min 9,2 C 5,2 C
23.06.2011 06:46 11,0 C 91 % 1014 hPa 0,0 l/m 16,4 km/h (3 Bft) SW22.5 220 0 min 9,4 klux 0,00 min 9,6 C 5,8 C
23.06.2011 07:01 11,4 C 90 % 1014 hPa 0,0 l/m 16,5 km/h (3 Bft) W-SW45 240 0 min 11,0 klux 0,00 min 9,8 C 6,3 C
23.06.2011 07:16 11,6 C 90 % 1014 hPa 0,0 l/m 17,1 km/h (3 Bft) SW45 230 0 min 9,3 klux 0,00 min 10,0 C 6,3 C
23.06.2011 07:31 11,8 C 89 % 1014 hPa 0,0 l/m 17,6 km/h (3 Bft) W-SW45 245 0 min 9,9 klux 0,00 min 10,0 C 6,4 C
23.06.2011 07:46 11,8 C 89 % 1014 hPa 0,0 l/m 22,8 km/h (4 Bft) SW45 225 0 min 13,0 klux 0,00 min 10,0 C 4,8 C
23.06.2011 08:01 12,1 C 89 % 1014 hPa 0,0 l/m 21,3 km/h (4 Bft) W-SW45 250 0 min 17,5 klux 0,00 min 10,3 C 5,6 C
23.06.2011 08:16 12,2 C 88 % 1014 hPa 0,0 l/m 19,7 km/h (3 Bft) W-SW45 240 0 min 19,4 klux 0,00 min 10,3 C 6,2 C
23.06.2011 08:31 12,5 C 86 % 1014 hPa 0,0 l/m 21,1 km/h (4 Bft) SW45 215 0 min 20,7 klux 0,00 min 10,2 C 6,2 C
23.06.2011 08:46 12,3 C 86 % 1014 hPa 0,0 l/m 19,2 km/h (3 Bft) SW45 230 0 min 10,4 klux 0,00 min 10,0 C 6,5 C
23.06.2011 09:01 12,0 C 87 % 1015 hPa 0,0 l/m 20,0 km/h (4 Bft) W-SW45 245 0 min 7,44 klux 0,00 min 9,9 C 5,9 C
23.06.2011 09:16 11,6 C 89 % 1015 hPa 0,6 l/m 22,8 km/h (4 Bft) W-SW 255 0 min 10,3 klux 15,00 min 9,8 C 4,6 C
23.06.2011 09:31 11,4 C 90 % 1015 hPa 0,6 l/m 20,8 km/h (4 Bft) W22.5 260 0 min 12,2 klux 15,00 min 9,8 C 4,9 C
23.06.2011 09:46 11,4 C 90 % 1015 hPa 0,3 l/m 25,6 km/h (4 Bft) W-SW45 240 0 min 22,6 klux 15,00 min 9,8 C 3,6 C
23.06.2011 10:01 11,8 C 90 % 1015 hPa 0,3 l/m 19,2 km/h (3 Bft) SW45 220 0 min 36,4 klux 15,00 min 10,2 C 5,9 C
23.06.2011 10:16 13,3 C 89 % 1015 hPa 0,0 l/m 23,8 km/h (4 Bft) W-SW45 250 15 min 84,3 klux 0,00 min 11,5 C 6,6 C
23.06.2011 10:31 13,2 C 86 % 1015 hPa 0,0 l/m 21,9 km/h (4 Bft) SW45 230 0 min 40,5 klux 0,00 min 10,9 C 6,9 C
23.06.2011 10:46 13,4 C 85 % 1015 hPa 0,0 l/m 20,9 km/h (4 Bft) SW45 225 0 min 38,7 klux 0,00 min 10,9 C 7,4 C
23.06.2011 11:02 13,0 C 86 % 1015 hPa 0,0 l/m 26,4 km/h (4 Bft) SW45 225 16 min 72,9 klux 0,00 min 10,7 C 5,6 C
23.06.2011 11:16 14,1 C 86 % 1015 hPa 0,0 l/m 27,8 km/h (4 Bft) W-SW22.5 240 14 min 75,2 klux 0,00 min 11,8 C 6,8 C
23.06.2011 11:31 14,1 C 84 % 1015 hPa 0,0 l/m 29,5 km/h (5 Bft) SW67.5 230 0 min 46,0 klux 0,00 min 11,4 C 6,5 C
23.06.2011 11:46 12,8 C 86 % 1015 hPa 0,0 l/m 27,8 km/h (4 Bft) W-SW45 245 0 min 13,6 klux 0,00 min 10,5 C 5,0 C
23.06.2011 12:01 12,0 C 87 % 1015 hPa 0,0 l/m 24,6 km/h (4 Bft) W45 260 0 min 23,7 klux 0,00 min 9,9 C 4,6 C
23.06.2011 12:16 12,6 C 89 % 1015 hPa 0,0 l/m 26,2 km/h (4 Bft) W-SW22.5 250 0 min 37,1 klux 0,00 min 10,8 C 5,1 C
23.06.2011 12:31 14,0 C 85 % 1015 hPa 0,0 l/m 34,1 km/h (5 Bft) W-SW67.5 245 0 min 55,2 klux 0,00 min 11,5 C 5,6 C
23.06.2011 12:47 15,0 C 80 % 1015 hPa 0,0 l/m 33,2 km/h (5 Bft) W-SW45 245 16 min 74,3 klux 0,00 min 11,6 C 7,2 C
23.06.2011 13:01 15,0 C 77 % 1015 hPa 0,0 l/m 36,9 km/h (5 Bft) W-SW67.5 245 0 min 59,0 klux 0,00 min 11,0 C 6,7 C
23.06.2011 13:16 14,6 C 78 % 1015 hPa 0,0 l/m 28,7 km/h (4 Bft) W-SW45 250 0 min 56,9 klux 0,00 min 10,8 C 7,4 C
23.06.2011 13:31 14,8 C 78 % 1015 hPa 0,6 l/m 31,0 km/h (5 Bft) W-SW67.5 250 15 min 82,8 klux 15,00 min 11,0 C 7,2 C
23.06.2011 13:46 15,2 C 74 % 1015 hPa 0,0 l/m 31,3 km/h (5 Bft) W-SW67.5 240 15 min 124 klux 0,00 min 10,6 C 7,8 C
23.06.2011 14:01 14,7 C 76 % 1015 hPa 0,0 l/m 30,8 km/h (5 Bft) SW22.5 220 0 min 46,4 klux 0,00 min 10,5 C 7,1 C
23.06.2011 14:17 13,6 C 77 % 1015 hPa 0,0 l/m 37,1 km/h (5 Bft) W-SW45 240 0 min 33,5 klux 0,00 min 9,6 C 4,6 C
23.06.2011 14:32 13,8 C 80 % 1015 hPa 0,0 l/m 20,1 km/h (4 Bft) W22.5 265 0 min 48,7 klux 0,00 min 10,4 C 8,2 C
23.06.2011 14:46 13,6 C 79 % 1015 hPa 0,0 l/m 18,1 km/h (3 Bft) W22.5 275 0 min 17,5 klux 0,00 min 10,0 C 8,5 C
23.06.2011 15:01 13,4 C 79 % 1015 hPa 0,0 l/m 18,8 km/h (3 Bft) W22.5 260 0 min 20,2 klux 0,00 min 9,8 C 8,0 C
23.06.2011 15:16 14,4 C 77 % 1015 hPa 0,0 l/m 18,9 km/h (3 Bft) W22.5 270 15 min 95,2 klux 0,00 min 10,4 C 9,3 C
23.06.2011 15:31 15,9 C 74 % 1015 hPa 0,0 l/m 23,5 km/h (4 Bft) W45 260 15 min 102 klux 0,00 min 11,3 C 10,1 C
23.06.2011 15:46 15,6 C 70 % 1015 hPa 0,0 l/m 31,7 km/h (5 Bft) W-SW45 250 0 min 28,5 klux 0,00 min 10,1 C 8,3 C
23.06.2011 16:02 15,6 C 69 % 1015 hPa 0,0 l/m 28,5 km/h (4 Bft) W45 270 16 min 61,9 klux 0,00 min 9,9 C 8,8 C
23.06.2011 16:16 15,7 C 69 % 1015 hPa 0,0 l/m 27,0 km/h (4 Bft) W-SW67.5 250 0 min 60,3 klux 0,00 min 10,0 C 9,2 C
23.06.2011 16:31 16,4 C 67 % 1015 hPa 0,0 l/m 34,3 km/h (5 Bft) W-SW45 255 15 min 89,4 klux 0,00 min 10,3 C 9,0 C
23.06.2011 16:46 16,3 C 67 % 1015 hPa 0,0 l/m 24,5 km/h (4 Bft) W22.5 265 15 min 85,6 klux 0,00 min 10,2 C 10,5 C
23.06.2011 17:01 15,6 C 67 % 1015 hPa 0,0 l/m 27,9 km/h (4 Bft) W45 260 0 min 25,1 klux 0,00 min 9,5 C 8,9 C
23.06.2011 17:16 16,1 C 64 % 1015 hPa 0,0 l/m 29,0 km/h (5 Bft) W-SW45 245 15 min 70,9 klux 0,00 min 9,3 C 9,4 C
23.06.2011 17:31 16,4 C 64 % 1015 hPa 0,0 l/m 25,8 km/h (4 Bft) W-SW67.5 250 15 min 66,6 klux 0,00 min 9,6 C 10,4 C
23.06.2011 17:47 16,4 C 61 % 1015 hPa 0,0 l/m 29,0 km/h (5 Bft) W45 270 16 min 71,6 klux 0,00 min 8,9 C 9,8 C
23.06.2011 18:01 16,4 C 57 % 1015 hPa 0,0 l/m 34,4 km/h (5 Bft) W22.5 270 14 min 61,3 klux 0,00 min 7,9 C 9,0 C
23.06.2011 18:16 16,4 C 57 % 1015 hPa 0,0 l/m 32,2 km/h (5 Bft) W22.5 270 15 min 63,7 klux 0,00 min 7,9 C 9,3 C
23.06.2011 18:31 16,2 C 57 % 1015 hPa 0,0 l/m 28,4 km/h (4 Bft) W22.5 260 0 min 55,7 klux 0,00 min 7,7 C 9,6 C
23.06.2011 18:46 15,6 C 58 % 1015 hPa 0,0 l/m 26,0 km/h (4 Bft) W45 265 0 min 53,0 klux 0,00 min 7,4 C 9,2 C
23.06.2011 19:01 15,1 C 60 % 1016 hPa 0,0 l/m 18,8 km/h (3 Bft) W22.5 280 0 min 34,8 klux 0,00 min 7,4 C 10,2 C
23.06.2011 19:17 15,0 C 63 % 1016 hPa 0,0 l/m 21,1 km/h (4 Bft) W45 265 0 min 42,2 klux 0,00 min 8,0 C 9,5 C
23.06.2011 19:31 14,6 C 63 % 1016 hPa 0,0 l/m 35,1 km/h (5 Bft) W45 265 0 min 11,3 klux 0,00 min 7,6 C 6,3 C
23.06.2011 19:46 12,8 C 70 % 1016 hPa 0,3 l/m 38,2 km/h (5 Bft) W45 275 0 min 12,6 klux 15,00 min 7,5 C 3,3 C
23.06.2011 20:01 12,4 C 72 % 1016 hPa 0,0 l/m 13,8 km/h (3 Bft) W22.5 260 0 min 33,6 klux 0,00 min 7,5 C 8,5 C
23.06.2011 20:16 12,3 C 73 % 1016 hPa 0,0 l/m 9,2 km/h (2 Bft) W-SW22.5 255 0 min 23,5 klux 0,00 min 7,6 C 10,6 C
23.06.2011 20:31 11,8 C 75 % 1017 hPa 0,0 l/m 13,2 km/h (3 Bft) W22.5 265 0 min 6,30 klux 0,00 min 7,5 C 8,1 C
23.06.2011 20:46 11,6 C 77 % 1017 hPa 0,0 l/m 21,6 km/h (4 Bft) W45 260 0 min 15,3 klux 0,00 min 7,7 C 4,9 C
23.06.2011 21:02 11,7 C 76 % 1016 hPa 0,0 l/m 19,3 km/h (3 Bft) W-SW22.5 240 0 min 13,6 klux 0,00 min 7,6 C 5,7 C
23.06.2011 21:16 11,3 C 77 % 1017 hPa 0,0 l/m 18,5 km/h (3 Bft) SW45 235 0 min 4,48 klux 0,00 min 7,4 C 5,4 C
23.06.2011 21:31 10,8 C 78 % 1017 hPa 0,0 l/m 19,1 km/h (3 Bft) W-SW45 240 0 min 2,34 klux 0,00 min 7,1 C 4,6 C
23.06.2011 21:46 10,4 C 78 % 1017 hPa 0,0 l/m 20,3 km/h (4 Bft) W-SW22.5 250 0 min 1,33 klux 0,00 min 6,7 C 3,7 C
23.06.2011 22:01 10,0 C 79 % 1017 hPa 0,0 l/m 11,7 km/h (2 Bft) W-SW22.5 255 0 min 503 lux 0,00 min 6,5 C 6,7 C
23.06.2011 22:16 9,6 C 81 % 1017 hPa 0,0 l/m 9,2 km/h (2 Bft) W-SW 255 0 min 125 lux 0,00 min 6,5 C 7,6 C
23.06.2011 22:32 9,2 C 81 % 1018 hPa 0,0 l/m 8,7 km/h (2 Bft) W-SW 255 0 min 32 lux 0,00 min 6,1 C 7,5 C
23.06.2011 22:47 8,8 C 83 % 1018 hPa 0,0 l/m 10,5 km/h (2 Bft) W-SW 250 0 min 6 lux 0,00 min 6,1 C 6,0 C
23.06.2011 23:01 8,4 C 83 % 1018 hPa 0,0 l/m 7,8 km/h (2 Bft) W-SW 245 0 min 0 lux 0,00 min 5,7 C 7,3 C
23.06.2011 23:16 8,2 C 84 % 1018 hPa 0,0 l/m 10,3 km/h (2 Bft) W-SW 250 0 min 0 lux 0,00 min 5,7 C 5,4 C
23.06.2011 23:31 8,1 C 85 % 1018 hPa 0,0 l/m 10,3 km/h (2 Bft) W-SW 255 0 min 0 lux 0,00 min 5,7 C 5,3 C
23.06.2011 23:46 8,0 C 86 % 1018 hPa 0,0 l/m 11,8 km/h (2 Bft) W-SW22.5 250 0 min 0 lux 0,00 min 5,8 C 4,3 C
_ Min-Zeit 23:46 18:01 00:32 - 04:46 - - - - - 23:16 19:46
Minimum _ 8,0 C 57 % 1014 hPa - 5,6 km/h (1 Bft) - - - - - 5,7 C 3,3 C
_ Max-Zeit 16:31 04:31 22:32 09:16 19:46 - - 11:02 13:46 09:16 11:16 20:16
Maximum _ 16,4 C 91 % 1018 hPa 0,6 l/m 38,2 km/h
W (5 Bft)
- - 16 min 124 klux 15,00 min 11,8 C 10,6 C
Durchschnitt _ 12,5 C 81 % 1015 hPa #2,7 l/m 20,7 km/h (4 Bft) W-SW - #4:02 h 25,7 klux #1:30 h 9,2 C 6,9 C